ADDS METAR Data INFO
IDs: Format: Raw Decoded Include TAF

Data at: 2303 UTC 15 Jul 2018

KGZL 152255Z AUTO 15004KT 10SM 32/17 A2992 RMK AO2
KGZL 152235Z AUTO 15008KT 10SM 30/17 A2993 RMK AO2
KGZL 152215Z AUTO 12009G19KT 10SM VCTS 32/16 A2994 RMK AO2 LTG DSNT NE-S
KGZL 152155Z AUTO 14012G18KT 10SM VCTS 37/13 A2993 RMK AO2 LTG DSNT NE-S
KGZL 152135Z AUTO 00000KT 10SM VCTS 38/13 A2992 RMK AO2 LTG DSNT ALQDS
KGZL 152115Z AUTO 29006KT 10SM 38/14 A2993 RMK AO2 LTG DSNT SW
KGZL 152055Z AUTO 35007KT 10SM 38/13 A2994 RMK AO2
KGZL 152035Z AUTO 00000KT 10SM 38/12 A2995 RMK AO2
KGZL 152015Z AUTO 31006KT 10SM 38/12 A2996 RMK AO2
KGZL 151955Z AUTO 33005KT 10SM 37/13 A2997 RMK AO2
KGZL 151935Z AUTO 31006KT 10SM 36/14 A2998 RMK AO2
KGZL 151915Z AUTO 28004KT 10SM 38/10 A2998 RMK AO2
KGZL 151855Z AUTO 28007KT 10SM 38/12 A2999 RMK AO2
KGZL 151835Z AUTO 29007KT 10SM 38/12 A2999 RMK AO2
KGZL 151815Z AUTO 30006KT 10SM 37/13 A3000 RMK AO2
KGZL 151755Z AUTO 26008KT 10SM 37/12 A3001 RMK AO2
KGZL 151735Z AUTO 26007KT 220V280 10SM 36/13 A3001 RMK AO2
KGZL 151715Z AUTO 26009G14KT 10SM 36/13 A3002 RMK AO2 LTG DSNT S
KGZL 151655Z AUTO 22008KT 190V250 10SM 35/13 A3001 RMK AO2
KGZL 151635Z AUTO 25006KT 10SM 35/14 A3001 RMK AO2
KGZL 151615Z AUTO 26007KT 10SM 35/14 A3001 RMK AO2
KGZL 151555Z AUTO 22007KT 10SM 35/14 A3001 RMK AO2
KGZL 151535Z AUTO 21007KT 10SM 35/14 A3001 RMK AO2
KGZL 151515Z AUTO 24003KT 10SM 34/15 A3001 RMK AO2
KGZL 151455Z AUTO 19006KT 10SM 32/16 A3002 RMK AO2
KGZL 151435Z AUTO 23005KT 10SM 32/18 A3002 RMK AO2
KGZL 151415Z AUTO 00000KT 10SM 30/18 A3003 RMK AO2
KGZL 151355Z AUTO 00000KT 10SM 31/18 A3003 RMK AO2
KGZL 151335Z AUTO 13003KT 10SM 30/19 A3002 RMK AO2
KGZL 151315Z AUTO 16004KT 10SM 29/19 A3003 RMK AO2
KGZL 151255Z AUTO 13004KT 10SM 28/19 A3002 RMK AO2
KGZL 151235Z AUTO 13003KT 10SM 27/19 A3002 RMK AO2
KGZL 151215Z AUTO 15003KT 10SM 27/20 A3003 RMK AO2
KGZL 151155Z AUTO 00000KT 10SM 25/20 A3003 RMK AO2
KGZL 151135Z AUTO 03003KT 10SM 25/20 A3003 RMK AO2
KGZL 151115Z AUTO 34003KT 10SM 25/19 A3003 RMK AO2
KGZL 151055Z AUTO 03003KT 10SM 27/18 A3002 RMK AO2
KGZL 151035Z AUTO 34008KT 10SM 25/18 A3002 RMK AO2 LTG DSNT N AND NW
KGZL 151015Z AUTO 35009KT 10SM 24/19 A3001 RMK AO2
KGZL 150955Z AUTO 00000KT 10SM 24/19 A2999 RMK AO2
KGZL 150935Z AUTO 00000KT 10SM 24/20 A2999 RMK AO2 LTG DSNT NE AND NW
KGZL 150915Z AUTO 00000KT 10SM 24/20 A2998 RMK AO2 LTG DSNT N AND NW
KGZL 150855Z AUTO 00000KT 10SM 24/20 A2998 RMK AO2
KGZL 150835Z AUTO 00000KT 10SM 24/20 A2998 RMK AO2 LTG DSNT N AND NE
KGZL 150815Z AUTO 00000KT 10SM 24/19 A2998 RMK AO2 LTG DSNT NE
KGZL 150755Z AUTO 00000KT 10SM 25/18 A2998 RMK AO2
KGZL 150735Z AUTO 00000KT 10SM 24/18 A2998 RMK AO2
KGZL 150715Z AUTO 00000KT 10SM 25/19 A2998 RMK AO2
KGZL 150655Z AUTO 00000KT 10SM 25/18 A2999 RMK AO2
KGZL 150635Z AUTO 00000KT 10SM 26/18 A2999 RMK AO2
KGZL 150615Z AUTO 00000KT 10SM 27/18 A2999 RMK AO2
KGZL 150555Z AUTO 18003KT 10SM 28/17 A2999 RMK AO2 LTG DSNT NW
KGZL 150535Z AUTO 18004KT 10SM 28/17 A2999 RMK AO2
KGZL 150515Z AUTO 18003KT 10SM 28/16 A3000 RMK AO2
KGZL 150455Z AUTO 19004KT 10SM 29/16 A3000 RMK AO2
KGZL 150435Z AUTO 18004KT 10SM 29/16 A3000 RMK AO2
KGZL 150415Z AUTO 16003KT 10SM 29/17 A3000 RMK AO2
KGZL 150355Z AUTO 18003KT 10SM 29/17 A3000 RMK AO2
KGZL 150335Z AUTO 18005KT 10SM 29/15 A2999 RMK AO2
KGZL 150315Z AUTO 18005KT 10SM 30/15 A2999 RMK AO2
KGZL 150255Z AUTO 19003KT 10SM 30/15 A2998 RMK AO2
KGZL 150235Z AUTO 00000KT 10SM 30/15 A2997 RMK AO2
KGZL 150215Z AUTO 18004KT 10SM 31/15 A2996 RMK AO2
KGZL 150155Z AUTO 00000KT 10SM 32/14 A2996 RMK AO2
KGZL 150135Z AUTO 21004KT 10SM 32/14 A2996 RMK AO2
KGZL 150115Z AUTO 21004KT 10SM 33/13 A2995 RMK AO2 LTG DSNT S
KGZL 150055Z AUTO 22005KT 10SM 34/12 A2995 RMK AO2
KGZL 150035Z AUTO 23008KT 10SM 35/11 A2994 RMK AO2
KGZL 150015Z AUTO 23007KT 10SM 36/11 A2994 RMK AO2
KGZL 142355Z AUTO 25007KT 10SM 37/10 A2995 RMK AO2
KGZL 142335Z AUTO 26006KT 10SM 37/10 A2995 RMK AO2
KGZL 142315Z AUTO 25008KT 10SM 37/10 A2996 RMK AO2
KGZL 142255Z AUTO 24010KT 10SM 37/09 A2996 RMK AO2
KGZL 142235Z AUTO 23012KT 10SM 38/09 A2996 RMK AO2
KGZL 142215Z AUTO 23011KT 10SM 38/10 A2996 RMK AO2
KGZL 142155Z AUTO 25008KT 10SM 38/10 A2997 RMK AO2 LTG DSNT N
KGZL 142135Z AUTO 22011G15KT 10SM 38/10 A2998 RMK AO2
KGZL 142115Z AUTO 17009KT 10SM 37/10 A2998 RMK AO2
KGZL 142055Z AUTO 18009KT 10SM 37/12 A2999 RMK AO2
KGZL 142035Z AUTO 21007KT 10SM 37/11 A3000 RMK AO2
KGZL 142015Z AUTO 21008KT 10SM 36/12 A3001 RMK AO2
KGZL 141955Z AUTO 23010G15KT 10SM 37/10 A3002 RMK AO2
KGZL 141935Z AUTO 26008G14KT 10SM 37/11 A3003 RMK AO2
KGZL 141915Z AUTO 24010G14KT 10SM 37/11 A3003 RMK AO2
KGZL 141855Z AUTO 23009KT 10SM 37/10 A3004 RMK AO2
KGZL 141835Z AUTO 22009G15KT 10SM 37/10 A3005 RMK AO2
KGZL 141815Z AUTO 22007G14KT 10SM 37/11 A3006 RMK AO2
KGZL 141755Z AUTO 22008KT 10SM 36/11 A3006 RMK AO2
KGZL 141735Z AUTO 21010G16KT 10SM 36/12 A3006 RMK AO2
KGZL 141715Z AUTO 21011G15KT 10SM 36/13 A3006 RMK AO2 LTG DSNT S
KGZL 141655Z AUTO 22011KT 10SM 35/13 A3006 RMK AO2
KGZL 141635Z AUTO 23010G15KT 10SM 35/13 A3007 RMK AO2
KGZL 141615Z AUTO 22009G14KT 10SM 35/14 A3007 RMK AO2
KGZL 141555Z AUTO 22010G15KT 10SM 34/14 A3007 RMK AO2
KGZL 141535Z AUTO 26009KT 10SM 34/15 A3007 RMK AO2
KGZL 141515Z AUTO 28009KT 10SM 34/15 A3008 RMK AO2
KGZL 141455Z AUTO 24007KT 10SM 33/15 A3007 RMK AO2
KGZL 141435Z AUTO 25007KT 10SM 32/17 A3008 RMK AO2
KGZL 141415Z AUTO 23007KT 10SM 32/18 A3008 RMK AO2
KGZL 141355Z AUTO 22006KT 10SM 31/18 A3007 RMK AO2
KGZL 141335Z AUTO 22007KT 10SM 30/18 A3007 RMK AO2
KGZL 141315Z AUTO 20006KT 10SM 29/18 A3006 RMK AO2
KGZL 141255Z AUTO 19004KT 10SM 29/18 A3006 RMK AO2
KGZL 141235Z AUTO 20004KT 10SM 28/19 A3005 RMK AO2
KGZL 141215Z AUTO 15003KT 10SM 25/20 A3005 RMK AO2
KGZL 141155Z AUTO 00000KT 10SM 24/20 A3005 RMK AO2
KGZL 141135Z AUTO 00000KT 10SM 24/20 A3005 RMK AO2
KGZL 141115Z AUTO 00000KT 10SM 24/20 A3005 RMK AO2